createdAt,value
2022-08-30T00:01:03.703Z,5.35
2022-08-30T00:03:34.138Z,5.40
2022-08-30T00:06:01.101Z,5.40
2022-08-30T00:08:28.389Z,5.47
2022-08-30T00:10:55.267Z,5.18
2022-08-30T00:13:23.521Z,4.90
2022-08-30T00:15:50.695Z,5.70
2022-08-30T00:18:19.758Z,5.47
2022-08-30T00:20:48.207Z,5.60
2022-08-30T00:23:15.081Z,5.57
2022-08-30T00:25:42.574Z,5.18
2022-08-30T00:28:09.831Z,6.90
2022-08-30T00:30:37.503Z,4.97
2022-08-30T00:33:04.813Z,5.78
2022-08-30T00:35:31.818Z,5.57
2022-08-30T00:37:58.885Z,5.22
2022-08-30T00:40:27.989Z,5.38
2022-08-30T00:42:59.677Z,5.10
2022-08-30T00:45:33.643Z,5.75
2022-08-30T00:48:00.899Z,5.70
2022-08-30T00:50:38.664Z,5.32
2022-08-30T00:53:09.222Z,5.20
2022-08-30T00:55:38.993Z,5.10
2022-08-30T00:58:17.086Z,5.68
2022-08-30T01:00:44.630Z,5.95
2022-08-30T01:03:11.480Z,5.80
2022-08-30T01:05:39.341Z,5.10
2022-08-30T01:08:06.380Z,6.60
2022-08-30T01:10:35.766Z,4.90
2022-08-30T01:13:03.305Z,5.60
2022-08-30T01:15:32.614Z,5.30
2022-08-30T01:18:00.213Z,5.60
2022-08-30T01:20:39.623Z,5.72
2022-08-30T01:23:13.644Z,5.93
2022-08-30T01:25:42.838Z,5.30
2022-08-30T01:28:21.872Z,5.25
2022-08-30T01:30:48.771Z,6.65
2022-08-30T01:33:16.291Z,5.55
2022-08-30T01:35:49.458Z,5.72
2022-08-30T01:38:18.061Z,5.72
2022-08-30T01:40:45.116Z,5.30
2022-08-30T01:43:14.322Z,5.90
2022-08-30T01:45:41.382Z,5.40
2022-08-30T01:48:09.118Z,5.65
2022-08-30T01:50:35.865Z,5.88
2022-08-30T01:53:07.135Z,5.88
2022-08-30T01:55:34.014Z,5.38
2022-08-30T01:58:01.140Z,5.18
2022-08-30T02:00:27.871Z,5.13
2022-08-30T02:02:54.965Z,5.10
2022-08-30T02:05:21.624Z,6.22
2022-08-30T02:07:48.299Z,5.78
2022-08-30T02:10:15.119Z,5.47
2022-08-30T02:12:42.115Z,5.90
2022-08-30T02:15:09.977Z,5.28
2022-08-30T02:17:36.974Z,5.78
2022-08-30T02:20:05.388Z,7.00
2022-08-30T02:22:32.115Z,5.50
2022-08-30T02:24:58.906Z,5.80
2022-08-30T02:27:26.646Z,5.60
2022-08-30T02:29:53.570Z,6.00
2022-08-30T02:32:20.244Z,5.68
2022-08-30T02:34:47.300Z,5.80
2022-08-30T02:37:15.435Z,6.18
2022-08-30T02:39:42.464Z,5.70
2022-08-30T02:42:09.396Z,6.03
2022-08-30T02:44:36.261Z,5.50
2022-08-30T02:47:03.423Z,5.63
2022-08-30T02:49:33.584Z,6.28
2022-08-30T02:52:01.941Z,5.55
2022-08-30T02:54:28.729Z,6.00
2022-08-30T02:56:56.149Z,5.70
2022-08-30T02:59:22.830Z,6.40
2022-08-30T03:01:49.712Z,6.07
2022-08-30T03:04:16.479Z,5.75
2022-08-30T03:06:43.639Z,5.72
2022-08-30T03:09:10.348Z,5.65
2022-08-30T03:11:37.550Z,5.78
2022-08-30T03:14:04.442Z,6.40
2022-08-30T03:16:31.144Z,5.70
2022-08-30T03:18:57.881Z,5.68
2022-08-30T03:21:24.722Z,5.80
2022-08-30T03:23:51.418Z,5.80
2022-08-30T03:26:18.129Z,5.05
2022-08-30T03:28:44.850Z,5.38
2022-08-30T03:31:12.119Z,5.80
2022-08-30T03:33:40.527Z,6.03
2022-08-30T03:36:08.859Z,6.15
2022-08-30T03:38:36.126Z,6.50
2022-08-30T03:41:02.844Z,6.10
2022-08-30T03:43:30.724Z,6.25
2022-08-30T03:45:58.210Z,5.05
2022-08-30T03:48:26.107Z,5.25
2022-08-30T03:50:53.232Z,5.90
2022-08-30T03:53:20.302Z,5.50
2022-08-30T03:55:46.977Z,5.68
2022-08-30T03:58:19.197Z,5.60
2022-08-30T04:00:46.449Z,5.90
2022-08-30T04:03:13.412Z,5.90
2022-08-30T04:05:40.499Z,5.55
2022-08-30T04:08:07.393Z,5.95
2022-08-30T04:10:35.247Z,5.70
2022-08-30T04:13:01.951Z,6.00
2022-08-30T04:15:28.700Z,5.75
2022-08-30T04:17:55.415Z,5.60
2022-08-30T04:20:22.199Z,5.70
2022-08-30T04:22:50.259Z,5.90
2022-08-30T04:25:17.675Z,5.90
2022-08-30T04:27:45.616Z,5.63
2022-08-30T04:30:13.631Z,5.43
2022-08-30T04:32:40.326Z,6.05
2022-08-30T04:35:07.534Z,5.25
2022-08-30T04:37:34.288Z,5.90
2022-08-30T04:40:01.067Z,5.80
2022-08-30T04:42:32.161Z,5.40
2022-08-30T04:45:01.974Z,5.57
2022-08-30T04:47:28.846Z,5.88
2022-08-30T04:49:55.566Z,5.93
2022-08-30T04:52:22.931Z,5.93
2022-08-30T04:54:57.369Z,5.93
2022-08-30T04:57:25.118Z,5.70
2022-08-30T04:59:51.820Z,5.95
2022-08-30T05:02:18.623Z,5.72
2022-08-30T05:05:03.916Z,5.60
2022-08-30T05:07:31.936Z,6.30
2022-08-30T05:09:59.533Z,6.00
2022-08-30T05:12:26.269Z,5.65
2022-08-30T05:14:53.183Z,5.72
2022-08-30T05:17:19.873Z,5.90
2022-08-30T05:19:46.575Z,5.63
2022-08-30T05:22:13.294Z,5.80
2022-08-30T05:24:40.065Z,5.85
2022-08-30T05:27:06.926Z,5.60
2022-08-30T05:29:34.094Z,5.90
2022-08-30T05:32:00.869Z,5.70
2022-08-30T05:34:30.310Z,5.88
2022-08-30T05:36:57.082Z,5.57
2022-08-30T05:39:23.774Z,5.50
2022-08-30T05:41:50.539Z,5.85
2022-08-30T05:44:17.281Z,7.78
2022-08-30T05:46:46.239Z,5.03
2022-08-30T05:49:13.255Z,5.28
2022-08-30T05:51:43.096Z,5.40
2022-08-30T05:54:12.215Z,5.28
2022-08-30T05:56:40.255Z,6.03
2022-08-30T05:59:08.774Z,5.22
2022-08-30T06:01:41.868Z,5.70
2022-08-30T06:04:10.660Z,5.20
2022-08-30T06:06:40.363Z,5.53
2022-08-30T06:09:09.341Z,5.70
2022-08-30T06:11:36.924Z,5.32
2022-08-30T06:14:04.487Z,5.68
2022-08-30T06:16:31.422Z,5.25
2022-08-30T06:19:00.024Z,6.03
2022-08-30T06:21:29.923Z,5.03
2022-08-30T06:23:57.663Z,6.30
2022-08-30T06:26:25.581Z,5.57
2022-08-30T06:28:52.588Z,5.32
2022-08-30T06:31:21.190Z,5.35
2022-08-30T06:33:48.164Z,5.10
2022-08-30T06:36:21.561Z,5.68
2022-08-30T06:38:52.144Z,5.13
2022-08-30T06:41:22.282Z,5.72
2022-08-30T06:43:49.418Z,4.95
2022-08-30T06:46:20.197Z,5.03
2022-08-30T06:48:48.400Z,5.07
2022-08-30T06:51:19.585Z,4.72
2022-08-30T06:53:46.295Z,4.90
2022-08-30T06:56:16.429Z,4.57
2022-08-30T06:58:44.402Z,4.90
2022-08-30T07:01:16.515Z,5.70
2022-08-30T07:03:43.505Z,4.45
2022-08-30T07:06:10.692Z,4.20
2022-08-30T07:08:38.721Z,4.00
2022-08-30T07:11:07.468Z,3.83
2022-08-30T07:13:35.613Z,4.73
2022-08-30T07:16:08.556Z,4.40
2022-08-30T07:18:50.489Z,4.10
2022-08-30T07:21:20.511Z,3.47
2022-08-30T07:23:53.258Z,3.30
2022-08-30T07:26:24.208Z,3.70
2022-08-30T07:28:55.923Z,3.60
2022-08-30T07:31:24.090Z,3.87
2022-08-30T07:33:51.124Z,3.50
2022-08-30T07:36:18.480Z,3.83
2022-08-30T07:38:46.540Z,3.60
2022-08-30T07:41:23.148Z,3.23
2022-08-30T07:43:50.158Z,3.23
2022-08-30T07:46:17.915Z,3.80
2022-08-30T07:48:44.996Z,3.30
2022-08-30T07:51:15.594Z,3.20
2022-08-30T07:53:42.625Z,2.93
2022-08-30T07:56:09.458Z,3.27
2022-08-30T07:58:37.893Z,3.50
2022-08-30T08:01:07.480Z,3.33
2022-08-30T08:03:35.238Z,3.87
2022-08-30T08:06:04.527Z,3.37
2022-08-30T08:08:32.521Z,3.30
2022-08-30T08:11:05.367Z,3.10
2022-08-30T08:13:32.780Z,3.17
2022-08-30T08:16:03.575Z,3.17
2022-08-30T08:18:31.810Z,3.30
2022-08-30T08:21:00.352Z,3.17
2022-08-30T08:23:27.705Z,3.00
2022-08-30T08:25:54.576Z,3.47
2022-08-30T08:28:21.526Z,3.73
2022-08-30T08:30:50.091Z,3.10
2022-08-30T08:33:18.188Z,3.63
2022-08-30T08:35:45.585Z,3.00
2022-08-30T08:38:12.396Z,3.37
2022-08-30T08:40:50.280Z,3.47
2022-08-30T08:43:22.098Z,3.33
2022-08-30T08:45:51.835Z,3.57
2022-08-30T08:48:59.610Z,4.00
2022-08-30T08:51:51.300Z,3.30
2022-08-30T08:54:24.585Z,3.47
2022-08-30T08:56:51.599Z,3.50
2022-08-30T08:59:18.491Z,3.60
2022-08-30T09:01:46.597Z,3.70
2022-08-30T09:04:17.590Z,3.40
2022-08-30T09:07:04.907Z,5.10
2022-08-30T09:09:37.515Z,4.10
2022-08-30T09:12:05.663Z,3.60
2022-08-30T09:14:46.076Z,3.47
2022-08-30T09:17:16.673Z,3.10
2022-08-30T09:19:58.866Z,3.40
2022-08-30T09:22:35.274Z,4.27
2022-08-30T09:25:01.971Z,3.53
2022-08-30T09:27:38.925Z,3.57
2022-08-30T09:30:17.084Z,3.40
2022-08-30T09:32:55.120Z,3.63
2022-08-30T09:35:34.610Z,3.40
2022-08-30T09:38:05.786Z,3.60
2022-08-30T09:40:39.817Z,3.77
2022-08-30T09:43:10.399Z,3.00
2022-08-30T09:45:41.877Z,3.40
2022-08-30T09:48:34.037Z,3.57
2022-08-30T09:51:11.496Z,3.27
2022-08-30T09:54:16.655Z,3.27
2022-08-30T09:57:00.990Z,3.53
2022-08-30T09:59:39.898Z,2.90
2022-08-30T10:02:40.512Z,3.40
2022-08-30T10:05:20.335Z,3.40
2022-08-30T10:08:14.496Z,3.73
2022-08-30T10:10:45.629Z,3.20
2022-08-30T10:13:56.353Z,3.50
2022-08-30T10:16:41.958Z,3.30
2022-08-30T10:19:37.258Z,3.20
2022-08-30T10:22:22.458Z,3.00
2022-08-30T10:24:58.848Z,2.90
2022-08-30T10:27:32.048Z,2.83
2022-08-30T10:30:07.587Z,2.90
2022-08-30T10:32:55.279Z,3.10
2022-08-30T10:35:29.100Z,2.60
2022-08-30T10:38:06.300Z,2.77
2022-08-30T10:40:56.003Z,2.87
2022-08-30T10:43:41.333Z,3.30
2022-08-30T10:46:18.934Z,2.80
2022-08-30T10:48:48.292Z,3.03
2022-08-30T10:51:23.019Z,3.43
2022-08-30T10:54:10.103Z,3.00
2022-08-30T10:56:40.566Z,3.00
2022-08-30T10:59:07.628Z,2.90
2022-08-30T11:02:03.382Z,2.90
2022-08-30T11:04:57.476Z,2.63
2022-08-30T11:07:54.334Z,2.93
2022-08-30T11:11:00.084Z,2.83
2022-08-30T11:13:29.924Z,3.30
2022-08-30T11:15:59.531Z,2.90
2022-08-30T11:18:30.947Z,2.93
2022-08-30T11:21:32.336Z,2.80
2022-08-30T11:24:02.130Z,3.17
2022-08-30T11:26:48.278Z,2.50
2022-08-30T11:29:44.635Z,2.90
2022-08-30T11:32:15.779Z,3.07
2022-08-30T11:34:45.440Z,3.43
2022-08-30T11:37:42.428Z,2.70
2022-08-30T11:40:24.283Z,2.80
2022-08-30T11:42:54.681Z,2.70
2022-08-30T11:45:24.654Z,3.23
2022-08-30T11:48:05.581Z,3.00
2022-08-30T11:50:53.530Z,2.60
2022-08-30T11:53:34.045Z,2.60
2022-08-30T11:56:21.345Z,2.73
2022-08-30T11:58:59.954Z,4.23
2022-08-30T12:01:50.019Z,2.90
2022-08-30T12:04:19.727Z,2.63
2022-08-30T12:06:56.939Z,3.10
2022-08-30T12:09:23.575Z,2.70
2022-08-30T12:11:56.078Z,2.80
2022-08-30T12:14:54.868Z,2.70
2022-08-30T12:17:42.874Z,2.90
2022-08-30T12:20:24.269Z,2.70
2022-08-30T12:22:53.052Z,2.90
2022-08-30T12:25:26.255Z,2.77
2022-08-30T12:28:22.874Z,2.80
2022-08-30T12:30:50.615Z,3.00
2022-08-30T12:33:29.357Z,3.07
2022-08-30T12:35:59.277Z,2.67
2022-08-30T12:38:28.092Z,3.07
2022-08-30T12:40:58.386Z,2.87
2022-08-30T12:43:40.492Z,2.87
2022-08-30T12:46:12.355Z,3.47
2022-08-30T12:48:41.422Z,3.20
2022-08-30T12:51:10.850Z,2.90
2022-08-30T12:53:46.091Z,2.63
2022-08-30T12:56:17.466Z,2.90
2022-08-30T12:58:52.857Z,3.10
2022-08-30T13:01:31.203Z,3.03
2022-08-30T13:04:00.781Z,2.77
2022-08-30T13:06:58.324Z,3.00
2022-08-30T13:09:35.016Z,2.93
2022-08-30T13:12:10.703Z,3.20
2022-08-30T13:14:44.947Z,2.77
2022-08-30T13:17:11.642Z,2.80
2022-08-30T13:19:41.694Z,2.90
2022-08-30T13:22:24.319Z,2.87
2022-08-30T13:24:54.270Z,2.93
2022-08-30T13:27:21.594Z,2.97
2022-08-30T13:29:48.582Z,3.13
2022-08-30T13:32:16.071Z,3.10
2022-08-30T13:34:43.398Z,3.00
2022-08-30T13:40:15.085Z,2.50
2022-08-30T13:42:42.947Z,3.00
2022-08-30T13:47:59.950Z,3.00
2022-08-30T13:50:26.606Z,3.00
2022-08-30T13:52:53.283Z,3.33
2022-08-30T13:55:20.077Z,3.50
2022-08-30T13:57:55.099Z,3.23
2022-08-30T14:00:25.030Z,2.90
2022-08-30T14:02:57.744Z,3.47
2022-08-30T14:11:09.486Z,2.80
2022-08-30T14:13:36.927Z,3.50
2022-08-30T14:18:55.542Z,2.80
2022-08-30T14:21:24.809Z,3.20
2022-08-30T14:23:52.793Z,3.10
2022-08-30T14:26:32.383Z,3.03
2022-08-30T14:29:01.223Z,2.90
2022-08-30T14:31:29.927Z,3.10
2022-08-30T14:34:00.074Z,3.00
2022-08-30T14:36:26.756Z,3.23
2022-08-30T14:38:53.637Z,3.13
2022-08-30T14:41:20.315Z,3.07
2022-08-30T14:43:47.028Z,3.10
2022-08-30T14:46:13.759Z,3.07
2022-08-30T14:48:41.632Z,3.07
2022-08-30T14:51:18.282Z,2.90
2022-08-30T14:53:46.630Z,2.90
2022-08-30T14:56:16.510Z,3.00
2022-08-30T14:58:44.137Z,3.00
2022-08-30T15:01:12.583Z,3.50
2022-08-30T15:03:41.045Z,3.47
2022-08-30T15:06:09.370Z,3.10
2022-08-30T15:08:38.142Z,2.87
2022-08-30T15:11:12.100Z,3.40
2022-08-30T15:13:40.171Z,3.20
2022-08-30T15:16:16.285Z,3.60
2022-08-30T15:18:43.563Z,3.20
2022-08-30T15:21:10.758Z,3.40
2022-08-30T15:23:39.285Z,3.57
2022-08-30T15:26:07.019Z,3.33
2022-08-30T15:28:34.869Z,3.50
2022-08-30T15:31:05.178Z,3.67
2022-08-30T15:33:35.703Z,3.37
2022-08-30T15:36:04.837Z,3.10
2022-08-30T15:38:32.594Z,3.90
2022-08-30T15:41:04.025Z,3.67
2022-08-30T15:43:31.271Z,3.57
2022-08-30T15:46:15.297Z,3.70
2022-08-30T15:48:45.833Z,3.70
2022-08-30T15:51:13.254Z,3.47
2022-08-30T15:53:40.421Z,3.97
2022-08-30T15:56:07.126Z,3.57
2022-08-30T15:58:35.094Z,3.77
2022-08-30T16:01:02.327Z,3.90
2022-08-30T16:03:29.605Z,3.80
2022-08-30T16:05:56.881Z,3.83
2022-08-30T16:08:23.785Z,3.20
2022-08-30T16:10:52.559Z,3.87
2022-08-30T16:13:19.529Z,3.70
2022-08-30T16:15:46.241Z,3.77
2022-08-30T16:18:14.558Z,3.77
2022-08-30T16:20:42.023Z,3.60
2022-08-30T16:23:09.862Z,4.30
2022-08-30T16:25:40.792Z,4.13
2022-08-30T16:28:08.013Z,4.23
2022-08-30T16:30:36.612Z,3.77
2022-08-30T16:33:03.379Z,3.93
2022-08-30T16:35:30.030Z,4.00
2022-08-30T16:37:56.758Z,3.70
2022-08-30T16:40:23.527Z,4.07
2022-08-30T16:42:50.721Z,3.80
2022-08-30T16:45:17.981Z,4.00
2022-08-30T16:47:45.977Z,3.60
2022-08-30T16:50:13.069Z,4.30
2022-08-30T16:52:44.049Z,3.70
2022-08-30T16:55:11.072Z,4.80
2022-08-30T16:57:38.774Z,3.90
2022-08-30T17:00:13.070Z,3.40
2022-08-30T17:02:40.989Z,4.10
2022-08-30T17:05:12.302Z,3.70
2022-08-30T17:07:39.915Z,3.43
2022-08-30T17:10:07.122Z,4.20
2022-08-30T17:12:35.734Z,4.37
2022-08-30T17:15:05.456Z,4.10
2022-08-30T17:17:33.003Z,4.40
2022-08-30T17:19:59.766Z,4.37
2022-08-30T17:22:26.564Z,3.80
2022-08-30T17:24:53.407Z,4.07
2022-08-30T17:27:20.155Z,4.20
2022-08-30T17:29:48.155Z,4.23
2022-08-30T17:32:14.938Z,3.90
2022-08-30T17:34:41.747Z,4.17
2022-08-30T17:37:08.760Z,3.90
2022-08-30T17:39:36.376Z,4.20
2022-08-30T17:42:04.007Z,4.20
2022-08-30T17:44:34.464Z,4.50
2022-08-30T17:47:01.584Z,4.57
2022-08-30T17:49:30.197Z,4.60
2022-08-30T17:51:57.557Z,5.07
2022-08-30T17:54:26.797Z,4.40
2022-08-30T17:56:54.351Z,4.37
2022-08-30T17:59:24.862Z,4.70
2022-08-30T18:01:53.247Z,5.13
2022-08-30T18:04:20.043Z,4.57
2022-08-30T18:06:47.901Z,4.43
2022-08-30T18:09:14.620Z,4.70
2022-08-30T18:11:41.405Z,4.40
2022-08-30T18:14:10.909Z,4.80
2022-08-30T18:16:38.759Z,4.80
2022-08-30T18:19:14.852Z,4.10
2022-08-30T18:21:41.669Z,4.70
2022-08-30T18:24:08.947Z,4.67
2022-08-30T18:26:43.160Z,4.80
2022-08-30T18:29:10.572Z,4.67
2022-08-30T18:31:37.431Z,4.50
2022-08-30T18:34:04.219Z,5.07
2022-08-30T18:36:31.462Z,4.73
2022-08-30T18:38:58.368Z,4.60
2022-08-30T18:41:25.955Z,4.90
2022-08-30T18:44:10.947Z,4.73
2022-08-30T18:46:53.721Z,4.70
2022-08-30T18:49:23.633Z,4.63
2022-08-30T18:51:50.553Z,4.73
2022-08-30T18:54:17.493Z,4.60
2022-08-30T18:56:45.911Z,4.97
2022-08-30T18:59:12.989Z,4.60
2022-08-30T19:01:40.519Z,4.80
2022-08-30T19:04:07.786Z,4.40
2022-08-30T19:06:34.851Z,4.43
2022-08-30T19:09:09.170Z,5.00
2022-08-30T19:11:38.335Z,4.67
2022-08-30T19:14:07.686Z,4.53
2022-08-30T19:16:34.791Z,5.10
2022-08-30T19:19:02.961Z,4.77
2022-08-30T19:21:29.723Z,4.80
2022-08-30T19:23:56.401Z,4.80
2022-08-30T19:26:23.435Z,4.97
2022-08-30T19:28:54.211Z,5.13
2022-08-30T19:31:20.915Z,4.70
2022-08-30T19:33:47.606Z,4.30
2022-08-30T19:36:14.702Z,4.90
2022-08-30T19:38:44.280Z,4.93
2022-08-30T19:41:12.663Z,5.60
2022-08-30T19:43:40.017Z,4.37
2022-08-30T19:46:07.495Z,5.10
2022-08-30T19:48:39.048Z,4.93
2022-08-30T19:51:13.943Z,4.90
2022-08-30T19:53:41.895Z,4.77
2022-08-30T19:56:08.707Z,4.77
2022-08-30T19:58:35.455Z,5.33
2022-08-30T20:01:10.720Z,5.60
2022-08-30T20:03:39.863Z,5.13
2022-08-30T20:06:07.333Z,4.83
2022-08-30T20:08:34.189Z,4.37
2022-08-30T20:11:00.912Z,4.57
2022-08-30T20:13:28.333Z,5.07
2022-08-30T20:15:59.290Z,4.90
2022-08-30T20:18:26.430Z,4.40
2022-08-30T20:20:53.557Z,4.90
2022-08-30T20:23:23.520Z,5.20
2022-08-30T20:25:53.067Z,4.67
2022-08-30T20:28:20.988Z,5.47
2022-08-30T20:30:48.480Z,5.07
2022-08-30T20:33:16.529Z,5.00
2022-08-30T20:35:49.361Z,4.67
2022-08-30T20:38:21.347Z,5.00
2022-08-30T20:40:51.038Z,4.60
2022-08-30T20:43:19.971Z,4.67
2022-08-30T20:45:48.093Z,4.90
2022-08-30T20:48:15.501Z,4.67
2022-08-30T20:50:42.682Z,4.97
2022-08-30T20:53:10.070Z,5.07
2022-08-30T20:55:41.971Z,5.30
2022-08-30T20:58:08.661Z,4.30
2022-08-30T21:00:35.599Z,5.00
2022-08-30T21:03:03.735Z,4.80
2022-08-30T21:05:35.238Z,5.20
2022-08-30T21:08:02.027Z,5.43
2022-08-30T21:10:36.693Z,4.80
2022-08-30T21:13:03.378Z,4.73
2022-08-30T21:15:38.308Z,5.50
2022-08-30T21:18:05.879Z,5.00
2022-08-30T21:20:32.889Z,5.27
2022-08-30T21:22:59.622Z,4.67
2022-08-30T21:25:26.317Z,4.90
2022-08-30T21:27:53.869Z,4.70
2022-08-30T21:30:21.062Z,5.00
2022-08-30T21:32:47.742Z,4.73
2022-08-30T21:35:33.010Z,4.77
2022-08-30T21:37:59.736Z,4.57
2022-08-30T21:40:27.340Z,5.40
2022-08-30T21:42:54.165Z,5.20
2022-08-30T21:45:20.846Z,5.73
2022-08-30T21:47:47.569Z,5.13
2022-08-30T21:50:14.269Z,5.03
2022-08-30T21:52:40.941Z,4.70
2022-08-30T21:55:07.933Z,5.73
2022-08-30T21:57:34.844Z,5.27
2022-08-30T22:00:02.151Z,5.40
2022-08-30T22:02:29.073Z,4.67
2022-08-30T22:04:56.041Z,4.70
2022-08-30T22:07:22.723Z,5.17
2022-08-30T22:09:49.423Z,5.27
2022-08-30T22:12:16.330Z,4.77
2022-08-30T22:14:43.123Z,4.60
2022-08-30T22:17:09.921Z,4.77
2022-08-30T22:19:36.778Z,5.17
2022-08-30T22:22:03.871Z,5.23
2022-08-30T22:24:32.511Z,5.13
2022-08-30T22:27:00.416Z,4.83
2022-08-30T22:29:27.094Z,5.40
2022-08-30T22:31:54.265Z,5.30
2022-08-30T22:34:21.036Z,5.43
2022-08-30T22:36:47.792Z,4.97
2022-08-30T22:39:14.506Z,4.90
2022-08-30T22:41:42.907Z,4.80
2022-08-30T22:44:10.111Z,4.90
2022-08-30T22:46:37.809Z,6.77
2022-08-30T22:49:06.095Z,5.40
2022-08-30T22:51:33.656Z,5.10
2022-08-30T22:54:01.226Z,5.30
2022-08-30T22:56:28.943Z,5.20
2022-08-30T22:58:56.582Z,4.80
2022-08-30T23:01:29.407Z,5.77
2022-08-30T23:03:58.518Z,5.70
2022-08-30T23:06:25.856Z,5.37
2022-08-30T23:08:52.846Z,5.07
2022-08-30T23:11:20.229Z,5.00
2022-08-30T23:13:47.756Z,4.90
2022-08-30T23:16:15.634Z,5.40
2022-08-30T23:18:44.915Z,5.10
2022-08-30T23:21:19.169Z,5.40
2022-08-30T23:24:04.575Z,4.50
2022-08-30T23:26:50.158Z,5.20
2022-08-30T23:29:35.852Z,5.00
2022-08-30T23:32:21.803Z,5.50
2022-08-30T23:35:07.333Z,5.23
2022-08-30T23:37:53.426Z,5.23
2022-08-30T23:40:40.613Z,5.40
2022-08-30T23:43:26.840Z,5.10
2022-08-30T23:46:15.148Z,5.60
2022-08-30T23:49:05.273Z,5.50
2022-08-30T23:51:50.857Z,5.47
2022-08-30T23:54:36.358Z,5.20
2022-08-30T23:57:21.771Z,5.83
